createdAt,value
2022-10-28T00:00:48.006Z,101705.69
2022-10-28T00:03:14.661Z,101700.53
2022-10-28T00:05:41.447Z,101699.28
2022-10-28T00:08:08.119Z,101701.34
2022-10-28T00:10:34.829Z,101700.69
2022-10-28T00:13:01.693Z,101699.25
2022-10-28T00:15:28.495Z,101708.16
2022-10-28T00:17:56.614Z,101704.44
2022-10-28T00:20:23.244Z,101704.81
2022-10-28T00:22:49.935Z,101703.59
2022-10-28T00:25:16.587Z,101699.44
2022-10-28T00:27:44.250Z,101711.19
2022-10-28T00:30:11.839Z,101704.16
2022-10-28T00:32:38.605Z,101703.53
2022-10-28T00:35:07.812Z,101701.91
2022-10-28T00:37:34.373Z,101699.78
2022-10-28T00:40:00.988Z,101696.88
2022-10-28T00:42:27.703Z,101685.72
2022-10-28T00:44:57.999Z,101689.66
2022-10-28T00:47:41.388Z,101682.19
2022-10-28T00:50:26.151Z,101684.25
2022-10-28T00:52:58.439Z,101685.28
2022-10-28T00:55:26.170Z,101683.81
2022-10-28T00:57:58.453Z,101690.41
2022-10-28T01:00:26.032Z,101686.25
2022-10-28T01:02:52.650Z,101689.13
2022-10-28T01:05:23.146Z,101681.91
2022-10-28T01:07:51.962Z,101683.97
2022-10-28T01:10:22.256Z,101679.00
2022-10-28T01:13:02.671Z,101675.69
2022-10-28T01:15:37.955Z,101668.06
2022-10-28T01:18:17.775Z,101662.06
2022-10-28T01:21:24.426Z,101659.56
2022-10-28T01:24:05.662Z,101659.16
2022-10-28T01:27:03.442Z,101651.13
2022-10-28T01:29:49.438Z,101646.78
2022-10-28T01:32:27.858Z,101644.28
2022-10-28T01:35:02.921Z,101636.44
2022-10-28T01:37:35.938Z,101646.31
2022-10-28T01:40:09.416Z,101646.31
2022-10-28T01:42:42.773Z,101635.59
2022-10-28T01:45:16.761Z,101634.78
2022-10-28T01:47:50.699Z,101639.13
2022-10-28T01:50:23.955Z,101634.78
2022-10-28T01:52:55.053Z,101633.13
2022-10-28T01:55:25.975Z,101640.31
2022-10-28T01:57:55.010Z,101632.09
2022-10-28T02:00:21.698Z,101637.47
2022-10-28T02:02:51.126Z,101634.78
2022-10-28T02:05:41.885Z,101625.31
2022-10-28T02:08:30.240Z,101624.81
2022-10-28T02:11:09.249Z,101630.56
2022-10-28T02:13:46.800Z,101626.44
2022-10-28T02:16:22.723Z,101624.16
2022-10-28T02:19:00.353Z,101626.22
2022-10-28T02:21:36.576Z,101617.91
2022-10-28T02:24:13.257Z,101621.19
2022-10-28T02:26:44.649Z,101614.56
2022-10-28T02:29:18.045Z,101619.53
2022-10-28T02:31:49.271Z,101619.72
2022-10-28T02:34:21.743Z,101617.25
2022-10-28T02:36:52.380Z,101612.94
2022-10-28T02:39:24.859Z,101613.94
2022-10-28T02:41:55.981Z,101611.28
2022-10-28T02:44:26.658Z,101608.59
2022-10-28T02:46:56.635Z,101614.78
2022-10-28T02:49:26.914Z,101613.75
2022-10-28T02:51:57.855Z,101608.19
2022-10-28T02:54:29.528Z,101611.69
2022-10-28T02:57:01.261Z,101600.97
2022-10-28T02:59:29.043Z,101599.13
2022-10-28T03:01:56.492Z,101595.63
2022-10-28T03:04:24.792Z,101589.25
2022-10-28T03:06:51.610Z,101593.78
2022-10-28T03:09:18.344Z,101593.78
2022-10-28T03:11:45.033Z,101588.59
2022-10-28T03:14:14.568Z,101588.59
2022-10-28T03:16:42.313Z,101591.09
2022-10-28T03:21:37.127Z,101590.91
2022-10-28T03:24:04.238Z,101593.78
2022-10-28T03:26:30.884Z,101592.94
2022-10-28T03:28:57.827Z,101594.78
2022-10-28T03:31:24.556Z,101588.81
2022-10-28T03:33:51.402Z,101597.88
2022-10-28T03:36:18.007Z,101588.19
2022-10-28T03:38:46.049Z,101578.50
2022-10-28T03:41:13.059Z,101578.06
2022-10-28T03:43:39.737Z,101575.59
2022-10-28T03:46:06.461Z,101574.56
2022-10-28T03:48:33.135Z,101578.25
2022-10-28T03:51:00.085Z,101567.94
2022-10-28T03:53:27.805Z,101571.00
2022-10-28T03:56:01.293Z,101573.88
2022-10-28T03:58:28.616Z,101575.09
2022-10-28T04:00:55.817Z,101571.41
2022-10-28T04:03:24.535Z,101574.91
2022-10-28T04:05:51.781Z,101573.66
2022-10-28T04:08:22.068Z,101581.88
2022-10-28T04:10:49.742Z,101584.56
2022-10-28T04:13:17.940Z,101582.69
2022-10-28T04:15:44.719Z,101573.19
2022-10-28T04:18:12.403Z,101572.56
2022-10-28T04:20:39.562Z,101572.78
2022-10-28T04:23:06.454Z,101573.16
2022-10-28T04:25:34.271Z,101574.34
2022-10-28T04:28:00.950Z,101570.25
2022-10-28T04:30:29.068Z,101571.44
2022-10-28T04:32:55.677Z,101562.78
2022-10-28T04:35:23.928Z,101571.03
2022-10-28T04:37:50.976Z,101573.25
2022-10-28T04:40:17.857Z,101574.44
2022-10-28T04:42:44.770Z,101567.84
2022-10-28T04:45:11.856Z,101575.41
2022-10-28T04:47:39.836Z,101576.47
2022-10-28T04:50:07.551Z,101575.63
2022-10-28T04:52:34.260Z,101574.16
2022-10-28T04:55:01.470Z,101573.50
2022-10-28T04:57:28.171Z,101565.72
2022-10-28T04:59:55.191Z,101568.56
2022-10-28T05:02:23.005Z,101568.56
2022-10-28T05:04:51.215Z,101571.44
2022-10-28T05:07:21.217Z,101577.59
2022-10-28T05:09:50.441Z,101572.25
2022-10-28T05:12:17.109Z,101573.28
2022-10-28T05:14:43.761Z,101575.13
2022-10-28T05:17:11.345Z,101580.47
2022-10-28T05:19:38.207Z,101577.59
2022-10-28T05:22:06.454Z,101572.06
2022-10-28T05:24:33.280Z,101574.75
2022-10-28T05:27:00.890Z,101562.38
2022-10-28T05:29:32.298Z,101573.09
2022-10-28T05:32:00.304Z,101559.53
2022-10-28T05:34:27.049Z,101557.88
2022-10-28T05:36:53.724Z,101555.19
2022-10-28T05:39:22.635Z,101555.19
2022-10-28T05:41:49.279Z,101559.53
2022-10-28T05:44:15.991Z,101555.63
2022-10-28T05:46:42.617Z,101559.75
2022-10-28T05:49:09.380Z,101547.84
2022-10-28T05:51:35.964Z,101558.34
2022-10-28T05:54:02.611Z,101554.28
2022-10-28T05:56:30.617Z,101550.38
2022-10-28T05:58:57.222Z,101553.88
2022-10-28T06:01:23.954Z,101558.22
2022-10-28T06:03:50.724Z,101566.88
2022-10-28T06:06:17.580Z,101560.69
2022-10-28T06:08:44.338Z,101565.22
2022-10-28T06:11:09.470Z,101568.53
2022-10-28T06:13:37.703Z,101559.50
2022-10-28T06:16:05.234Z,101562.16
2022-10-28T06:18:32.548Z,101562.34
2022-10-28T06:20:59.278Z,101565.84
2022-10-28T06:23:27.549Z,101551.66
2022-10-28T06:28:25.150Z,101570.19
2022-10-28T06:30:53.264Z,101565.66
2022-10-28T06:33:20.152Z,101575.34
2022-10-28T06:35:46.853Z,101581.31
2022-10-28T06:38:13.503Z,101576.81
2022-10-28T06:40:40.150Z,101569.41
2022-10-28T06:43:08.367Z,101572.69
2022-10-28T06:45:35.066Z,101577.88
2022-10-28T06:48:06.490Z,101583.88
2022-10-28T06:50:35.610Z,101593.38
2022-10-28T06:53:03.320Z,101585.75
2022-10-28T06:55:30.400Z,101596.91
2022-10-28T06:58:00.237Z,101595.88
2022-10-28T07:00:27.642Z,101592.81
2022-10-28T07:02:54.771Z,101593.47
2022-10-28T07:05:24.376Z,101590.38
2022-10-28T07:07:51.618Z,101595.34
2022-10-28T07:10:18.698Z,101594.94
2022-10-28T07:12:45.578Z,101592.72
2022-10-28T07:15:12.671Z,101593.13
2022-10-28T07:17:39.587Z,101593.78
2022-10-28T07:20:07.468Z,101595.06
2022-10-28T07:22:35.542Z,101596.50
2022-10-28T07:25:02.354Z,101602.28
2022-10-28T07:27:28.958Z,101598.38
2022-10-28T07:29:55.650Z,101601.50
2022-10-28T07:32:22.273Z,101599.25
2022-10-28T07:34:49.113Z,101589.00
2022-10-28T07:37:15.972Z,101588.63
2022-10-28T07:39:44.052Z,101592.53
2022-10-28T07:42:10.718Z,101592.16
2022-10-28T07:44:37.456Z,101585.53
2022-10-28T07:47:04.452Z,101592.19
2022-10-28T07:49:31.307Z,101590.75
2022-10-28T07:51:58.105Z,101587.69
2022-10-28T07:54:25.113Z,101590.78
2022-10-28T07:56:53.189Z,101592.03
2022-10-28T07:59:25.818Z,101596.16
2022-10-28T08:01:55.392Z,101592.88
2022-10-28T08:04:22.371Z,101591.44
2022-10-28T08:06:49.047Z,101598.03
2022-10-28T08:09:16.804Z,101594.78
2022-10-28T08:11:43.786Z,101594.16
2022-10-28T08:14:11.965Z,101587.16
2022-10-28T08:16:38.786Z,101595.44
2022-10-28T08:19:07.842Z,101605.75
2022-10-28T08:21:35.550Z,101604.13
2022-10-28T08:24:02.311Z,101604.13
2022-10-28T08:26:29.088Z,101604.16
2022-10-28T08:28:56.627Z,101596.31
2022-10-28T08:31:24.609Z,101603.75
2022-10-28T08:33:51.534Z,101602.94
2022-10-28T08:36:18.358Z,101605.03
2022-10-28T08:38:46.219Z,101598.03
2022-10-28T08:41:32.136Z,101596.38
2022-10-28T08:44:46.731Z,101593.88
2022-10-28T08:47:29.410Z,101595.13
2022-10-28T08:50:01.013Z,101600.91
2022-10-28T08:52:31.622Z,101612.91
2022-10-28T08:55:02.783Z,101614.97
2022-10-28T08:57:36.513Z,101613.53
2022-10-28T09:00:06.662Z,101611.88
2022-10-28T09:02:48.204Z,101602.34
2022-10-28T09:05:21.722Z,101606.06
2022-10-28T09:07:49.068Z,101606.28
2022-10-28T09:10:17.878Z,101605.84
2022-10-28T09:12:55.212Z,101601.47
2022-10-28T09:15:34.097Z,101604.97
2022-10-28T09:18:08.670Z,101605.41
2022-10-28T09:20:48.045Z,101596.94
2022-10-28T09:23:22.447Z,101604.16
2022-10-28T09:26:00.472Z,101604.13
2022-10-28T09:28:40.101Z,101601.41
2022-10-28T09:31:15.109Z,101589.84
2022-10-28T09:33:54.250Z,101592.50
2022-10-28T09:36:25.207Z,101601.59
2022-10-28T09:38:55.252Z,101600.72
2022-10-28T09:41:25.878Z,101598.81
2022-10-28T09:43:59.388Z,101604.78
2022-10-28T09:46:33.226Z,101594.00
2022-10-28T09:49:11.227Z,101604.72
2022-10-28T09:51:46.320Z,101604.69
2022-10-28T09:54:14.137Z,101595.97
2022-10-28T09:56:41.600Z,101604.63
2022-10-28T09:59:13.511Z,101608.09
2022-10-28T10:01:44.074Z,101603.94
2022-10-28T10:04:19.245Z,101613.00
2022-10-28T10:06:49.651Z,101604.91
2022-10-28T10:09:21.700Z,101615.88
2022-10-28T10:11:50.506Z,101616.84
2022-10-28T10:14:21.500Z,101610.81
2022-10-28T10:16:54.019Z,101606.41
2022-10-28T10:19:22.354Z,101611.16
2022-10-28T10:21:50.440Z,101605.91
2022-10-28T10:24:31.148Z,101604.19
2022-10-28T10:27:00.319Z,101604.59
2022-10-28T10:29:29.108Z,101600.41
2022-10-28T10:32:16.621Z,101602.47
2022-10-28T10:34:50.625Z,101605.31
2022-10-28T10:37:19.227Z,101607.31
2022-10-28T10:39:46.182Z,101601.50
2022-10-28T10:42:18.115Z,101588.19
2022-10-28T10:44:45.523Z,101594.75
2022-10-28T10:47:21.133Z,101598.47
2022-10-28T10:49:49.868Z,101590.50
2022-10-28T10:52:20.260Z,101580.91
2022-10-28T10:55:02.839Z,101581.09
2022-10-28T10:57:31.142Z,101580.22
2022-10-28T10:59:58.244Z,101585.75
2022-10-28T11:02:28.314Z,101585.88
2022-10-28T11:04:59.708Z,101580.41
2022-10-28T11:07:28.368Z,101571.44
2022-10-28T11:09:55.951Z,101566.78
2022-10-28T11:12:29.401Z,101558.81
2022-10-28T11:14:59.112Z,101555.44
2022-10-28T11:17:27.879Z,101546.41
2022-10-28T11:19:59.458Z,101544.91
2022-10-28T11:22:39.305Z,101539.41
2022-10-28T11:25:26.959Z,101533.31
2022-10-28T11:28:05.289Z,101532.06
2022-10-28T11:30:45.508Z,101542.16
2022-10-28T11:33:30.096Z,101542.53
2022-10-28T11:36:07.167Z,101553.22
2022-10-28T11:39:01.887Z,101541.94
2022-10-28T11:41:39.271Z,101536.94
2022-10-28T11:44:18.554Z,101535.41
2022-10-28T11:47:00.966Z,101532.88
2022-10-28T11:50:20.374Z,101534.63
2022-10-28T11:53:21.958Z,101541.19
2022-10-28T11:55:56.611Z,101533.47
2022-10-28T11:58:32.481Z,101531.94
2022-10-28T12:01:18.407Z,101537.44
2022-10-28T12:04:05.383Z,101543.00
2022-10-28T12:06:51.886Z,101553.31
2022-10-28T12:09:27.939Z,101554.28
2022-10-28T12:12:08.468Z,101548.16
2022-10-28T12:14:48.412Z,101549.31
2022-10-28T12:17:20.760Z,101539.94
2022-10-28T12:19:53.790Z,101532.97
2022-10-28T12:22:26.039Z,101537.94
2022-10-28T12:24:56.053Z,101537.22
2022-10-28T12:27:27.648Z,101538.63
2022-10-28T12:30:00.082Z,101548.72
2022-10-28T12:32:30.246Z,101543.47
2022-10-28T12:35:05.398Z,101547.56
2022-10-28T12:37:37.001Z,101547.13
2022-10-28T12:40:13.079Z,101546.38
2022-10-28T12:42:47.573Z,101551.34
2022-10-28T12:45:17.301Z,101550.63
2022-10-28T12:47:49.998Z,101554.50
2022-10-28T12:50:25.626Z,101551.53
2022-10-28T12:52:58.978Z,101557.53
2022-10-28T12:55:35.419Z,101568.13
2022-10-28T12:58:10.703Z,101561.66
2022-10-28T13:00:43.560Z,101554.94
2022-10-28T13:03:14.421Z,101559.06
2022-10-28T13:05:45.115Z,101566.09
2022-10-28T13:08:43.843Z,101562.09
2022-10-28T13:11:53.860Z,101567.25
2022-10-28T13:14:56.312Z,101569.97
2022-10-28T13:17:35.571Z,101578.09
2022-10-28T13:20:17.486Z,101581.38
2022-10-28T13:23:04.421Z,101587.25
2022-10-28T13:25:56.746Z,101593.75
2022-10-28T13:28:29.710Z,101592.34
2022-10-28T13:31:02.062Z,101600.47
2022-10-28T13:33:30.491Z,101603.41
2022-10-28T13:36:11.254Z,101599.03
2022-10-28T13:38:40.363Z,101593.06
2022-10-28T13:41:29.005Z,101597.06
2022-10-28T13:44:37.601Z,101598.34
2022-10-28T13:47:29.224Z,101601.28
2022-10-28T13:50:33.414Z,101590.72
2022-10-28T13:53:43.302Z,101606.34
2022-10-28T13:56:45.891Z,101619.28
2022-10-28T13:59:21.984Z,101619.28
2022-10-28T14:02:02.226Z,101616.81
2022-10-28T14:04:44.018Z,101619.78
2022-10-28T14:07:21.636Z,101613.53
2022-10-28T14:09:52.371Z,101630.81
2022-10-28T14:12:24.654Z,101620.84
2022-10-28T14:15:05.161Z,101626.47
2022-10-28T14:17:37.858Z,101636.69
2022-10-28T14:20:22.156Z,101636.94
2022-10-28T14:22:49.575Z,101642.34
2022-10-28T14:25:54.587Z,101664.00
2022-10-28T14:28:52.169Z,101649.03
2022-10-28T14:31:21.043Z,101650.31
2022-10-28T14:34:27.348Z,101644.09
2022-10-28T14:37:11.828Z,101647.06
2022-10-28T14:39:48.475Z,101649.13
2022-10-28T14:42:32.732Z,101651.84
2022-10-28T14:45:18.211Z,101661.63
2022-10-28T14:48:07.793Z,101669.13
2022-10-28T14:50:39.835Z,101673.91
2022-10-28T14:53:14.147Z,101666.88
2022-10-28T14:55:46.339Z,101664.66
2022-10-28T14:58:21.097Z,101649.47
2022-10-28T15:00:56.559Z,101662.41
2022-10-28T15:03:23.866Z,101656.41
2022-10-28T15:05:50.467Z,101662.88
2022-10-28T15:08:21.902Z,101670.16
2022-10-28T15:10:49.855Z,101674.16
2022-10-28T15:13:19.030Z,101681.66
2022-10-28T15:15:52.422Z,101700.56
2022-10-28T15:18:22.787Z,101701.88
2022-10-28T15:20:50.161Z,101696.09
2022-10-28T15:23:21.994Z,101697.16
2022-10-28T15:26:06.697Z,101690.34
2022-10-28T15:28:33.694Z,101699.72
2022-10-28T15:31:00.324Z,101691.03
2022-10-28T15:33:30.365Z,101700.22
2022-10-28T15:36:08.421Z,101709.59
2022-10-28T15:38:40.206Z,101703.59
2022-10-28T15:41:39.468Z,101694.66
2022-10-28T15:44:06.395Z,101696.19
2022-10-28T15:46:33.949Z,101692.28
2022-10-28T15:49:02.270Z,101717.06
2022-10-28T15:51:31.874Z,101723.75
2022-10-28T15:54:11.157Z,101722.09
2022-10-28T15:56:53.861Z,101716.91
2022-10-28T15:59:22.427Z,101723.63
2022-10-28T16:01:49.353Z,101726.53
2022-10-28T16:04:46.133Z,101728.63
2022-10-28T16:07:13.062Z,101734.50
2022-10-28T16:09:46.820Z,101738.25
2022-10-28T16:12:16.393Z,101734.13
2022-10-28T16:14:44.716Z,101737.31
2022-10-28T16:17:17.896Z,101737.53
2022-10-28T16:19:50.406Z,101740.44
2022-10-28T16:22:18.404Z,101744.41
2022-10-28T16:24:46.612Z,101733.03
2022-10-28T16:27:16.905Z,101735.13
2022-10-28T16:29:46.669Z,101746.97
2022-10-28T16:32:15.066Z,101748.03
2022-10-28T16:34:42.132Z,101755.53
2022-10-28T16:37:24.915Z,101746.81
2022-10-28T16:39:59.495Z,101745.59
2022-10-28T16:42:27.840Z,101752.28
2022-10-28T16:44:59.538Z,101764.13
2022-10-28T16:47:29.579Z,101766.44
2022-10-28T16:49:58.287Z,101779.81
2022-10-28T16:52:29.011Z,101774.25
2022-10-28T16:55:02.941Z,101770.34
2022-10-28T16:57:29.724Z,101769.97
2022-10-28T16:59:56.509Z,101769.59
2022-10-28T17:02:28.270Z,101774.41
2022-10-28T17:04:58.077Z,101778.56
2022-10-28T17:07:24.958Z,101780.09
2022-10-28T17:09:54.598Z,101776.16
2022-10-28T17:12:31.928Z,101776.84
2022-10-28T17:14:58.654Z,101788.53
2022-10-28T17:17:25.458Z,101802.69
2022-10-28T17:19:52.133Z,101803.53
2022-10-28T17:22:18.874Z,101804.44
2022-10-28T17:24:46.109Z,101799.91
2022-10-28T17:27:13.906Z,101813.00
2022-10-28T17:29:41.899Z,101805.78
2022-10-28T17:32:08.811Z,101809.13
2022-10-28T17:34:35.924Z,101807.91
2022-10-28T17:37:02.761Z,101813.72
2022-10-28T17:39:29.559Z,101810.66
2022-10-28T17:41:56.442Z,101807.56
2022-10-28T17:44:24.006Z,101816.09
2022-10-28T17:46:52.277Z,101818.16
2022-10-28T17:49:19.443Z,101817.75
2022-10-28T17:51:46.558Z,101829.81
2022-10-28T17:54:13.382Z,101833.97
2022-10-28T17:56:42.515Z,101837.94
2022-10-28T17:59:09.616Z,101844.59
2022-10-28T18:01:37.336Z,101849.97
2022-10-28T18:04:06.433Z,101843.97
2022-10-28T18:06:34.167Z,101853.91
2022-10-28T18:09:00.993Z,101843.38
2022-10-28T18:11:30.176Z,101853.31
2022-10-28T18:13:57.157Z,101856.44
2022-10-28T18:16:27.876Z,101856.63
2022-10-28T18:18:55.493Z,101846.91
2022-10-28T18:21:24.664Z,101852.13
2022-10-28T18:23:52.754Z,101856.28
2022-10-28T18:26:30.639Z,101860.22
2022-10-28T18:28:57.817Z,101856.53
2022-10-28T18:31:27.100Z,101863.16
2022-10-28T18:33:53.737Z,101869.19
2022-10-28T18:36:23.623Z,101873.31
2022-10-28T18:38:51.081Z,101875.44
2022-10-28T18:41:19.140Z,101875.19
2022-10-28T18:43:46.142Z,101883.91
2022-10-28T18:46:13.561Z,101884.56
2022-10-28T18:48:40.714Z,101887.66
2022-10-28T18:51:10.400Z,101889.72
2022-10-28T18:53:40.119Z,101884.78
2022-10-28T18:56:08.627Z,101907.16
2022-10-28T18:58:35.874Z,101915.00
2022-10-28T19:01:08.128Z,101915.22
2022-10-28T19:03:35.679Z,101912.75
2022-10-28T19:06:03.212Z,101911.09
2022-10-28T19:08:30.061Z,101911.09
2022-10-28T19:10:58.988Z,101907.34
2022-10-28T19:13:26.034Z,101899.50
2022-10-28T19:15:53.189Z,101904.47
2022-10-28T19:18:20.225Z,101905.50
2022-10-28T19:20:46.892Z,101913.97
2022-10-28T19:23:13.675Z,101907.13
2022-10-28T19:25:40.454Z,101908.59
2022-10-28T19:28:11.070Z,101903.63
2022-10-28T19:30:37.717Z,101911.31
2022-10-28T19:33:04.437Z,101920.59
2022-10-28T19:35:33.678Z,101924.31
2022-10-28T19:38:00.172Z,101932.63
2022-10-28T19:40:26.821Z,101928.06
2022-10-28T19:42:53.948Z,101923.53
2022-10-28T19:45:22.298Z,101926.81
2022-10-28T19:47:49.674Z,101927.00
2022-10-28T19:50:16.709Z,101917.31
2022-10-28T19:52:43.761Z,101930.97
2022-10-28T19:55:14.810Z,101935.91
2022-10-28T19:57:41.843Z,101943.59
2022-10-28T20:00:10.036Z,101943.78
2022-10-28T20:02:38.680Z,101954.53
2022-10-28T20:05:06.522Z,101941.47
2022-10-28T20:07:33.201Z,101942.75
2022-10-28T20:12:27.322Z,101977.72
2022-10-28T20:14:54.712Z,101975.22
2022-10-28T20:17:21.513Z,101981.63
2022-10-28T20:19:49.797Z,101983.91
2022-10-28T20:22:17.706Z,101985.97
2022-10-28T20:24:44.362Z,101993.59
2022-10-28T20:27:11.202Z,101984.09
2022-10-28T20:29:37.934Z,101979.31
2022-10-28T20:32:04.717Z,101980.53
2022-10-28T20:34:32.845Z,101993.53
2022-10-28T20:37:00.851Z,101992.69
2022-10-28T20:39:27.628Z,101994.56
2022-10-28T20:41:56.630Z,101998.31
2022-10-28T20:44:23.506Z,102008.22
2022-10-28T20:46:50.431Z,102003.88
2022-10-28T20:49:17.077Z,102004.91
2022-10-28T20:51:44.709Z,102007.78
2022-10-28T20:54:15.162Z,102014.41
2022-10-28T20:56:43.363Z,102010.44
2022-10-28T20:59:10.587Z,102013.56
2022-10-28T21:01:42.200Z,102021.81
2022-10-28T21:04:10.873Z,102028.22
2022-10-28T21:06:38.488Z,102016.81
2022-10-28T21:09:05.654Z,102020.53
2022-10-28T21:11:34.056Z,102027.75
2022-10-28T21:14:02.008Z,102015.56
2022-10-28T21:16:32.668Z,102014.94
2022-10-28T21:18:59.641Z,102018.00
2022-10-28T21:21:27.317Z,102014.06
2022-10-28T21:23:54.221Z,102021.50
2022-10-28T21:26:21.048Z,102022.94
2022-10-28T21:28:50.735Z,102010.91
2022-10-28T21:31:18.626Z,102014.84
2022-10-28T21:33:47.013Z,102008.81
2022-10-28T21:36:23.414Z,102015.41
2022-10-28T21:38:57.125Z,102022.03
2022-10-28T21:41:24.907Z,102020.38
2022-10-28T21:43:54.386Z,102020.16
2022-10-28T21:46:22.303Z,102014.31
2022-10-28T21:48:49.469Z,102024.00
2022-10-28T21:51:17.648Z,102021.69
2022-10-28T21:53:45.776Z,102031.19
2022-10-28T21:56:18.296Z,102034.25
2022-10-28T21:58:46.584Z,102027.81
2022-10-28T22:01:17.990Z,102030.69
2022-10-28T22:03:44.634Z,102029.25
2022-10-28T22:06:11.379Z,102036.84
2022-10-28T22:08:38.216Z,102035.75
2022-10-28T22:11:06.795Z,102039.63
2022-10-28T22:13:34.471Z,102047.06
2022-10-28T22:16:03.770Z,102043.56
2022-10-28T22:18:33.513Z,102040.03
2022-10-28T22:21:04.614Z,102048.09
2022-10-28T22:23:32.061Z,102035.69
2022-10-28T22:26:00.900Z,102038.56
2022-10-28T22:28:27.832Z,102039.81
2022-10-28T22:31:01.186Z,102042.47
2022-10-28T22:33:28.009Z,102037.69
2022-10-28T22:35:59.894Z,102053.97
2022-10-28T22:38:27.390Z,102057.69
2022-10-28T22:41:05.578Z,102061.19
2022-10-28T22:43:32.348Z,102064.63
2022-10-28T22:45:59.668Z,102064.84
2022-10-28T22:48:28.106Z,102061.53
2022-10-28T22:50:54.916Z,102052.81
2022-10-28T22:53:23.210Z,102053.00
2022-10-28T22:55:52.580Z,102058.38
2022-10-28T22:58:19.544Z,102060.22
2022-10-28T23:00:46.869Z,102064.97
2022-10-28T23:03:13.996Z,102069.50
2022-10-28T23:05:41.185Z,102070.34
2022-10-28T23:08:08.657Z,102070.53
2022-10-28T23:10:36.647Z,102070.72
2022-10-28T23:13:03.703Z,102066.38
2022-10-28T23:15:30.520Z,102052.78
2022-10-28T23:17:57.747Z,102050.91
2022-10-28T23:20:25.396Z,102051.56
2022-10-28T23:22:55.276Z,102057.94
2022-10-28T23:25:21.951Z,102060.63
2022-10-28T23:27:52.690Z,102060.81
2022-10-28T23:30:19.678Z,102062.22
2022-10-28T23:32:46.337Z,102057.25
2022-10-28T23:35:13.071Z,102064.84
2022-10-28T23:37:39.793Z,102069.75
2022-10-28T23:40:07.162Z,102071.78
2022-10-28T23:42:33.838Z,102067.66
2022-10-28T23:45:02.288Z,102066.00
2022-10-28T23:47:29.137Z,102068.19
2022-10-28T23:49:55.860Z,102065.91
2022-10-28T23:52:22.866Z,102066.09
2022-10-28T23:54:49.510Z,102072.03
2022-10-28T23:57:16.391Z,102064.72
2022-10-28T23:59:43.005Z,102066.78
